Pagrindinis puslapis
METAR-TAF:

METAR-TAF

Oro uostai :

Pekanbaru, Indonezija

platuma: 00-28N, ilguma: 101-27E, Aukštis: 31 m

Dabartinis oras

Ataskaita buvo paskelbta 12 valandos ir 5 minutes, ne 10:00 UTC
Vėjas 5 kt iš Rytų/Pietryčių
Temperatūra 30°C
Drėgmė 66%
Slėgis 1007 hPa
Matomumas 10 km arba daugiau
Mažai debesys ne aukštis 1500 ft

METAR: WIBB 121000Z 11005KT 9999 FEW015 30/23 Q1007

Laikas: 05:05 (22:05 UTC)


TAF: trūkstamas

Orai ataskaitas ir orų prognozės (METAR, TAF).

turimą stotys yra geltonos ir raudonos taškus žemėlapyje.

Perkelti pele per norėdami pamatyti stoties vardą.

Tada spustelėkite, norėdami matyti oro stebėjimo ir prognozės.

Norėdami pakeisti žemėlapį: spustelėkite ant žalios mygtukų su juodo kryžiaus žemyn,; žalią mygtuką su brūkšneliu, jei norite nutolinti; arba žalių rodyklių gretimoms žemėlapius.


METAR-TAF: